createdAt,value
2019-02-02T00:04:43.015Z,84.00
2019-02-02T00:07:31.628Z,84.00
2019-02-02T00:10:20.455Z,83.90
2019-02-02T00:13:08.925Z,82.70
2019-02-02T00:15:57.411Z,84.10
2019-02-02T00:18:45.968Z,84.30
2019-02-02T00:21:34.477Z,84.30
2019-02-02T00:24:04.336Z,84.60
2019-02-02T00:26:33.842Z,85.20
2019-02-02T00:29:03.377Z,85.50
2019-02-02T00:31:33.367Z,85.80
2019-02-02T00:39:50.289Z,85.50
2019-02-02T00:42:31.810Z,85.50
2019-02-02T00:45:13.341Z,86.30
2019-02-02T00:47:43.116Z,85.70
2019-02-02T00:53:40.686Z,86.10
2019-02-02T00:56:29.248Z,86.40
2019-02-02T00:59:17.868Z,86.90
2019-02-02T01:02:06.451Z,85.80
2019-02-02T01:04:55.787Z,86.40
2019-02-02T01:07:45.450Z,85.10
2019-02-02T01:13:30.339Z,85.50
2019-02-02T01:19:15.018Z,85.50
2019-02-02T01:22:03.571Z,85.40
2019-02-02T01:24:52.160Z,85.70
2019-02-02T01:27:40.699Z,85.40
2019-02-02T01:30:29.399Z,85.50
2019-02-02T01:33:18.013Z,86.30
2019-02-02T01:36:06.771Z,86.10
2019-02-02T01:38:55.362Z,86.50
2019-02-02T01:41:43.908Z,86.40
2019-02-02T01:47:09.440Z,86.80
2019-02-02T01:52:53.942Z,86.60
2019-02-02T01:55:42.698Z,86.60
2019-02-02T01:58:31.784Z,86.40
2019-02-02T02:04:13.774Z,86.20
2019-02-02T02:07:02.707Z,86.30
2019-02-02T02:09:51.220Z,86.60
2019-02-02T02:12:21.183Z,86.10
2019-02-02T02:15:10.728Z,86.70
2019-02-02T02:20:41.061Z,86.90
2019-02-02T02:23:22.591Z,86.70
2019-02-02T02:25:52.154Z,86.80
2019-02-02T02:28:40.950Z,86.80
2019-02-02T02:34:17.774Z,87.00
2019-02-02T02:36:58.804Z,86.60
2019-02-02T02:39:41.020Z,86.70
2019-02-02T02:42:22.518Z,86.80
2019-02-02T02:45:03.885Z,86.30
2019-02-02T02:47:45.647Z,85.90
2019-02-02T02:50:26.931Z,85.80
2019-02-02T02:52:57.276Z,87.00
2019-02-02T02:55:45.918Z,85.90
2019-02-02T02:58:41.693Z,87.10
2019-02-02T03:01:06.001Z,86.10
2019-02-02T03:03:35.452Z,86.90
2019-02-02T03:06:05.186Z,86.80
2019-02-02T03:08:53.967Z,86.90
2019-02-02T03:11:42.560Z,87.10
2019-02-02T03:14:31.159Z,86.60
2019-02-02T03:17:19.933Z,86.50
2019-02-02T03:19:49.431Z,86.30
2019-02-02T03:22:19.251Z,86.30
2019-02-02T03:24:48.894Z,86.30
2019-02-02T03:27:37.374Z,86.20
2019-02-02T03:30:25.948Z,85.70
2019-02-02T03:33:14.510Z,86.10
2019-02-02T03:35:44.119Z,86.90
2019-02-02T03:38:34.313Z,87.00
2019-02-02T03:43:45.855Z,86.30
2019-02-02T03:46:34.461Z,86.60
2019-02-02T03:49:04.845Z,86.90
2019-02-02T03:51:34.910Z,87.10
2019-02-02T03:54:09.002Z,87.20
2019-02-02T03:56:55.867Z,87.40
2019-02-02T03:59:44.470Z,87.00
2019-02-02T04:02:14.588Z,86.90
2019-02-02T04:05:03.220Z,86.50
2019-02-02T04:07:32.661Z,87.00
2019-02-02T04:10:21.353Z,87.20
2019-02-02T04:13:10.300Z,87.10
2019-02-02T04:15:58.838Z,87.30
2019-02-02T04:18:47.407Z,87.50
2019-02-02T04:21:17.317Z,87.30
2019-02-02T04:24:05.986Z,87.50
2019-02-02T04:29:57.036Z,86.40
2019-02-02T04:32:45.599Z,87.20
2019-02-02T04:35:34.325Z,86.70
2019-02-02T04:40:54.725Z,87.10
2019-02-02T04:43:43.271Z,87.70
2019-02-02T04:46:32.010Z,87.30
2019-02-02T04:49:20.575Z,87.50
2019-02-02T04:55:04.788Z,87.30
2019-02-02T04:57:34.719Z,87.10
2019-02-02T05:00:05.863Z,86.90
2019-02-02T05:02:41.530Z,86.40
2019-02-02T05:05:14.725Z,86.80
2019-02-02T05:07:45.696Z,86.10
2019-02-02T05:10:17.868Z,86.20
2019-02-02T05:12:47.731Z,87.10
2019-02-02T05:15:17.363Z,87.60
2019-02-02T05:17:46.815Z,87.10
2019-02-02T05:20:16.442Z,87.20
2019-02-02T05:22:47.110Z,87.40
2019-02-02T05:25:16.778Z,86.50
2019-02-02T05:27:46.130Z,87.20
2019-02-02T05:30:18.536Z,87.20
2019-02-02T05:32:47.926Z,87.70
2019-02-02T05:35:19.283Z,87.90
2019-02-02T05:37:50.193Z,87.60
2019-02-02T05:40:20.641Z,87.20
2019-02-02T05:42:51.084Z,87.50
2019-02-02T05:45:21.295Z,87.50
2019-02-02T05:47:50.724Z,88.10
2019-02-02T05:50:21.715Z,87.60
2019-02-02T05:52:51.160Z,88.50
2019-02-02T05:55:20.885Z,87.70
2019-02-02T05:57:50.393Z,87.70
2019-02-02T06:00:43.356Z,87.50
2019-02-02T06:03:13.189Z,87.90
2019-02-02T06:05:42.980Z,87.80
2019-02-02T06:08:12.815Z,88.10
2019-02-02T06:10:42.618Z,88.00
2019-02-02T06:13:12.341Z,87.80
2019-02-02T06:15:42.260Z,87.90
2019-02-02T06:18:12.198Z,87.80
2019-02-02T06:20:42.001Z,87.40
2019-02-02T06:23:11.671Z,88.00
2019-02-02T06:25:41.855Z,88.10
2019-02-02T06:28:11.587Z,88.60
2019-02-02T06:30:41.251Z,88.10
2019-02-02T06:33:11.007Z,88.10
2019-02-02T06:35:40.679Z,88.00
2019-02-02T06:38:10.543Z,87.80
2019-02-02T06:40:40.314Z,88.10
2019-02-02T06:43:09.693Z,87.70
2019-02-02T06:45:39.148Z,87.50
2019-02-02T06:48:08.665Z,87.50
2019-02-02T06:50:39.294Z,87.70
2019-02-02T06:53:09.766Z,87.10
2019-02-02T06:55:41.518Z,86.80
2019-02-02T06:58:11.940Z,86.90
2019-02-02T07:00:42.282Z,87.30
2019-02-02T07:03:13.868Z,87.50
2019-02-02T07:05:45.364Z,87.50
2019-02-02T07:08:16.277Z,87.40
2019-02-02T07:10:46.187Z,87.50
2019-02-02T07:13:16.102Z,87.30
2019-02-02T07:15:45.814Z,87.20
2019-02-02T07:18:15.190Z,87.80
2019-02-02T07:20:44.628Z,87.90
2019-02-02T07:23:14.135Z,88.20
2019-02-02T07:25:47.999Z,87.70
2019-02-02T07:28:18.505Z,87.40
2019-02-02T07:30:48.435Z,87.70
2019-02-02T07:33:17.762Z,87.50
2019-02-02T07:35:47.207Z,87.60
2019-02-02T07:38:16.567Z,87.60
2019-02-02T07:40:46.351Z,87.90
2019-02-02T07:43:16.047Z,87.60
2019-02-02T07:45:45.814Z,87.70
2019-02-02T07:48:15.199Z,87.70
2019-02-02T07:50:44.699Z,88.10
2019-02-02T07:53:14.206Z,88.20
2019-02-02T07:55:43.610Z,87.60
2019-02-02T07:58:13.083Z,87.70
2019-02-02T08:00:44.292Z,88.00
2019-02-02T08:03:17.182Z,87.50
2019-02-02T08:05:54.468Z,86.70
2019-02-02T08:08:28.370Z,87.10
2019-02-02T08:11:02.442Z,87.20
2019-02-02T08:16:23.787Z,86.50
2019-02-02T08:18:53.358Z,87.70
2019-02-02T08:21:23.022Z,87.70
2019-02-02T08:23:52.768Z,88.40
2019-02-02T08:26:22.359Z,87.60
2019-02-02T08:28:52.239Z,87.60
2019-02-02T08:31:21.772Z,88.00
2019-02-02T08:33:51.281Z,87.80
2019-02-02T08:36:20.849Z,87.70
2019-02-02T08:38:50.458Z,87.50
2019-02-02T08:41:20.188Z,87.50
2019-02-02T08:43:50.036Z,87.10
2019-02-02T08:46:21.234Z,87.00
2019-02-02T08:48:50.919Z,87.50
2019-02-02T08:51:21.226Z,87.60
2019-02-02T08:53:50.734Z,87.40
2019-02-02T08:56:20.308Z,88.30
2019-02-02T08:58:49.939Z,87.30
2019-02-02T09:01:19.674Z,87.50
2019-02-02T09:03:49.252Z,87.70
2019-02-02T09:06:18.857Z,87.00
2019-02-02T09:08:48.441Z,87.30
2019-02-02T09:11:18.067Z,87.60
2019-02-02T09:13:47.735Z,87.10
2019-02-02T09:16:17.603Z,87.20
2019-02-02T09:18:47.155Z,87.00
2019-02-02T09:21:16.803Z,87.10
2019-02-02T09:23:46.353Z,87.40
2019-02-02T09:26:16.041Z,87.30
2019-02-02T09:28:45.606Z,87.80
2019-02-02T09:31:16.095Z,87.60
2019-02-02T09:33:45.802Z,86.70
2019-02-02T09:36:16.924Z,87.20
2019-02-02T09:38:46.848Z,87.00
2019-02-02T09:41:16.472Z,87.00
2019-02-02T09:43:46.355Z,87.00
2019-02-02T09:46:15.944Z,87.10
2019-02-02T09:48:45.591Z,87.40
2019-02-02T09:51:15.184Z,87.50
2019-02-02T09:53:44.720Z,87.50
2019-02-02T09:56:23.352Z,87.40
2019-02-02T09:58:53.411Z,86.40
2019-02-02T10:01:27.838Z,87.40
2019-02-02T10:03:54.540Z,87.20
2019-02-02T10:06:24.016Z,87.30
2019-02-02T10:08:53.779Z,87.30
2019-02-02T10:11:23.448Z,87.10
2019-02-02T10:13:53.381Z,87.20
2019-02-02T10:16:22.982Z,87.90
2019-02-02T10:18:52.580Z,86.90
2019-02-02T10:21:22.237Z,86.80
2019-02-02T10:23:51.923Z,87.10
2019-02-02T10:26:21.744Z,87.50
2019-02-02T10:28:51.374Z,86.90
2019-02-02T10:31:21.266Z,86.70
2019-02-02T10:33:50.873Z,86.60
2019-02-02T10:36:20.808Z,86.70
2019-02-02T10:38:50.461Z,87.00
2019-02-02T10:41:20.260Z,87.30
2019-02-02T10:43:50.516Z,87.10
2019-02-02T10:46:20.384Z,86.80
2019-02-02T10:48:53.714Z,87.00
2019-02-02T10:51:25.513Z,86.70
2019-02-02T10:53:55.044Z,86.40
2019-02-02T10:56:24.788Z,87.30
2019-02-02T11:01:51.341Z,86.40
2019-02-02T11:04:22.076Z,86.60
2019-02-02T11:06:51.891Z,87.90
2019-02-02T11:09:21.710Z,87.10
2019-02-02T11:18:06.483Z,86.50
2019-02-02T11:20:57.252Z,86.50
2019-02-02T11:23:30.203Z,87.00
2019-02-02T11:26:20.010Z,87.10
2019-02-02T11:28:50.040Z,87.00
2019-02-02T11:31:21.627Z,87.30
2019-02-02T11:33:51.199Z,87.30
2019-02-02T11:36:20.950Z,86.90
2019-02-02T11:40:10.741Z,86.90
2019-02-02T11:42:41.207Z,86.30
2019-02-02T11:45:29.017Z,86.60
2019-02-02T11:48:17.620Z,86.90
2019-02-02T11:51:06.205Z,86.80
2019-02-02T11:53:55.059Z,87.20
2019-02-02T11:56:43.707Z,86.80
2019-02-02T11:59:32.500Z,87.10
2019-02-02T12:02:21.132Z,86.60
2019-02-02T12:05:09.733Z,86.50
2019-02-02T12:07:58.352Z,86.30
2019-02-02T12:10:46.858Z,86.60
2019-02-02T12:13:35.452Z,86.90
2019-02-02T12:19:13.415Z,86.10
2019-02-02T12:22:01.969Z,86.10
2019-02-02T12:24:43.140Z,87.10
2019-02-02T12:30:08.047Z,87.30
2019-02-02T12:35:38.266Z,87.10
2019-02-02T12:43:48.242Z,85.40
2019-02-02T12:49:19.500Z,85.40
2019-02-02T12:52:00.834Z,84.90
2019-02-02T12:54:44.548Z,85.30
2019-02-02T12:57:25.787Z,85.40
2019-02-02T13:00:07.330Z,86.10
2019-02-02T13:02:50.122Z,84.60
2019-02-02T13:05:31.742Z,84.20
2019-02-02T13:10:50.104Z,82.00
2019-02-02T13:13:38.866Z,83.80
2019-02-02T13:16:08.610Z,83.10
2019-02-02T13:18:57.189Z,84.50
2019-02-02T13:21:45.824Z,85.10
2019-02-02T13:27:25.147Z,85.00
2019-02-02T13:30:15.662Z,85.90
2019-02-02T13:36:10.076Z,83.30
2019-02-02T13:38:39.856Z,82.80
2019-02-02T13:41:28.504Z,84.80
2019-02-02T13:47:10.508Z,84.40
2019-02-02T13:49:43.625Z,84.40
2019-02-02T13:52:33.807Z,84.50
2019-02-02T13:55:22.431Z,85.00
2019-02-02T13:58:11.411Z,84.70
2019-02-02T14:04:02.133Z,84.40
2019-02-02T14:06:51.139Z,84.90
2019-02-02T14:09:21.818Z,86.00
2019-02-02T14:12:10.319Z,86.00
2019-02-02T14:14:40.035Z,85.90
2019-02-02T14:17:09.730Z,86.50
2019-02-02T14:19:39.494Z,86.10
2019-02-02T14:22:09.143Z,85.90
2019-02-02T14:24:39.323Z,86.20
2019-02-02T14:27:09.392Z,86.20
2019-02-02T14:32:50.173Z,84.90
2019-02-02T14:35:38.988Z,85.70
2019-02-02T14:38:27.975Z,85.90
2019-02-02T14:41:16.403Z,86.00
2019-02-02T14:43:45.795Z,85.80
2019-02-02T14:46:16.858Z,86.80
2019-02-02T14:48:48.741Z,86.30
2019-02-02T14:51:38.496Z,86.20
2019-02-02T14:54:29.635Z,84.90
2019-02-02T14:57:14.634Z,84.70
2019-02-02T15:06:58.359Z,84.50
2019-02-02T15:09:46.860Z,85.00
2019-02-02T15:12:37.197Z,84.60
2019-02-02T15:18:15.003Z,84.80
2019-02-02T15:21:04.205Z,85.30
2019-02-02T15:23:34.390Z,84.40
2019-02-02T15:26:04.186Z,85.40
2019-02-02T15:28:52.979Z,85.00
2019-02-02T15:31:41.995Z,85.10
2019-02-02T15:37:29.751Z,84.80
2019-02-02T15:45:53.702Z,86.60
2019-02-02T15:48:42.682Z,86.60
2019-02-02T15:54:12.728Z,86.60
2019-02-02T15:56:42.566Z,86.60
2019-02-02T16:02:08.280Z,85.20
2019-02-02T16:04:56.901Z,86.40
2019-02-02T16:10:28.897Z,86.50
2019-02-02T16:16:19.992Z,86.20
2019-02-02T16:19:08.569Z,86.20
2019-02-02T16:21:57.140Z,85.20
2019-02-02T16:24:45.748Z,85.90
2019-02-02T16:30:09.773Z,85.90
2019-02-02T16:38:37.978Z,86.00
2019-02-02T16:41:19.996Z,86.10
2019-02-02T16:43:50.441Z,85.30
2019-02-02T16:46:39.519Z,86.00
2019-02-02T16:49:09.032Z,86.00
2019-02-02T16:51:57.615Z,86.20
2019-02-02T16:54:46.649Z,86.30
2019-02-02T17:00:30.647Z,86.00
2019-02-02T17:03:19.565Z,86.20
2019-02-02T17:06:09.595Z,85.80
2019-02-02T17:08:58.247Z,85.20
2019-02-02T17:14:55.737Z,86.40
2019-02-02T17:17:45.086Z,87.00
2019-02-02T17:23:49.607Z,87.00
2019-02-02T17:29:16.982Z,86.30
2019-02-02T17:31:58.797Z,86.90
2019-02-02T17:37:25.809Z,86.90
2019-02-02T17:40:07.147Z,87.00
2019-02-02T17:42:48.753Z,86.70
2019-02-02T17:45:30.234Z,86.90
2019-02-02T17:48:13.279Z,87.00
2019-02-02T17:50:54.119Z,86.80
2019-02-02T17:53:35.694Z,87.30
2019-02-02T17:59:10.610Z,88.40
2019-02-02T18:04:41.179Z,86.90
2019-02-02T18:07:17.759Z,86.60
2019-02-02T18:09:58.572Z,87.40
2019-02-02T18:12:40.064Z,87.10
2019-02-02T18:15:21.544Z,86.70
2019-02-02T18:18:03.169Z,86.50
2019-02-02T18:20:44.743Z,86.60
2019-02-02T18:23:26.255Z,86.70
2019-02-02T18:26:07.137Z,87.00
2019-02-02T18:28:48.761Z,87.10
2019-02-02T18:31:31.122Z,86.70
2019-02-02T18:34:12.650Z,86.30
2019-02-02T18:36:54.208Z,86.40
2019-02-02T18:39:34.956Z,85.70
2019-02-02T18:45:05.645Z,86.60
2019-02-02T18:47:47.295Z,85.50
2019-02-02T18:50:28.721Z,85.90
2019-02-02T18:53:10.221Z,85.70
2019-02-02T18:55:51.766Z,85.60
2019-02-02T18:58:33.194Z,85.00
2019-02-02T19:01:03.079Z,86.00
2019-02-02T19:03:51.767Z,86.00
2019-02-02T19:06:40.312Z,85.80
2019-02-02T19:12:24.601Z,85.70
2019-02-02T19:18:14.258Z,85.90
2019-02-02T19:21:02.841Z,86.30
2019-02-02T19:23:51.490Z,85.80
2019-02-02T19:26:33.019Z,85.60
2019-02-02T19:32:03.644Z,86.40
2019-02-02T19:34:45.128Z,86.30
2019-02-02T19:37:26.615Z,86.40
2019-02-02T19:42:57.408Z,87.10
2019-02-02T19:48:30.973Z,87.20
2019-02-02T19:51:12.269Z,86.60
2019-02-02T19:53:53.725Z,87.40
2019-02-02T19:56:35.207Z,87.10
2019-02-02T19:59:16.912Z,86.70
2019-02-02T20:01:53.717Z,86.60
2019-02-02T20:04:42.280Z,86.30
2019-02-02T20:07:30.846Z,86.60
2019-02-02T20:10:19.676Z,86.50
2019-02-02T20:13:08.269Z,86.50
2019-02-02T20:15:56.828Z,86.10
2019-02-02T20:21:44.618Z,86.30
2019-02-02T20:24:35.681Z,86.60
2019-02-02T20:27:24.289Z,86.60
2019-02-02T20:36:11.217Z,85.40
2019-02-02T20:44:44.501Z,85.30
2019-02-02T20:47:33.110Z,84.90
2019-02-02T20:50:21.751Z,85.20
2019-02-02T20:53:10.394Z,85.00
2019-02-02T20:55:59.185Z,85.70
2019-02-02T20:58:40.453Z,85.00
2019-02-02T21:01:21.824Z,86.00
2019-02-02T21:04:03.547Z,86.40
2019-02-02T21:09:34.109Z,85.40
2019-02-02T21:12:15.547Z,85.00
2019-02-02T21:14:56.476Z,85.20
2019-02-02T21:17:38.036Z,84.70
2019-02-02T21:20:11.502Z,85.30
2019-02-02T21:23:00.433Z,85.90
2019-02-02T21:25:49.257Z,85.20
2019-02-02T21:28:49.788Z,86.40
2019-02-02T21:31:52.786Z,85.60
2019-02-02T21:34:41.353Z,85.20
2019-02-02T21:37:29.941Z,85.50
2019-02-02T21:40:38.687Z,85.40
2019-02-02T21:43:27.383Z,85.20
2019-02-02T21:46:16.250Z,85.60
2019-02-02T21:49:05.286Z,85.10
2019-02-02T21:51:53.852Z,84.10
2019-02-02T21:54:41.804Z,84.10
2019-02-02T21:57:30.647Z,84.00
2019-02-02T22:00:11.737Z,83.30
2019-02-02T22:05:36.315Z,84.20
2019-02-02T22:08:17.765Z,84.50
2019-02-02T22:16:42.504Z,84.50
2019-02-02T22:19:23.677Z,84.00
2019-02-02T22:22:04.525Z,84.80
2019-02-02T22:24:46.095Z,84.70
2019-02-02T22:27:30.554Z,84.00
2019-02-02T22:30:12.476Z,84.40
2019-02-02T22:32:53.494Z,84.50
2019-02-02T22:35:35.186Z,85.00
2019-02-02T22:38:16.909Z,85.00
2019-02-02T22:40:58.420Z,85.20
2019-02-02T22:43:39.413Z,85.20
2019-02-02T22:46:20.279Z,85.20
2019-02-02T22:49:01.891Z,85.40
2019-02-02T22:51:43.282Z,85.50
2019-02-02T23:00:05.501Z,84.30
2019-02-02T23:02:47.473Z,84.50
2019-02-02T23:05:28.648Z,85.30
2019-02-02T23:08:09.988Z,84.90
2019-02-02T23:10:51.540Z,84.90
2019-02-02T23:13:32.253Z,85.30
2019-02-02T23:16:26.188Z,84.50
2019-02-02T23:18:57.113Z,84.80
2019-02-02T23:21:27.866Z,85.10
2019-02-02T23:23:57.542Z,85.20
2019-02-02T23:26:27.478Z,85.60
2019-02-02T23:28:57.102Z,85.50
2019-02-02T23:31:26.851Z,85.50
2019-02-02T23:33:56.564Z,85.80
2019-02-02T23:36:26.146Z,85.70
2019-02-02T23:38:55.724Z,85.70
2019-02-02T23:41:25.244Z,85.80
2019-02-02T23:43:55.107Z,85.20
2019-02-02T23:46:24.728Z,84.70
2019-02-02T23:48:54.215Z,85.10
2019-02-02T23:51:24.153Z,84.60
2019-02-02T23:53:53.820Z,84.80
2019-02-02T23:56:23.432Z,84.60
2019-02-02T23:58:53.383Z,85.10
